Clyo, Georgia
Current Conditions -  °F | °C
As of 1:35 AM on Tuesday 21 Oct 2014 (Local Time) from KJYL Reporting Station
Clear Clear  
Wind Chill: 63°   Ceiling: Unl
Heat Index: 63°   Visibility: 7mi
Dew Point: 62°   Wind: 0mph
Humidity: 97%   Direction: NA
Pressure: 29.98"   Gusts: NA
Location:  32.48°N, 81.27°W
Report Text: KJYL 210535Z AUTO 00000KT 7SM CLR 17/17 A2998 RMK AO2 T01710166
Loading
Personal Weather Stations






























Interactive Weather Map
Tropical Storm Tracking
New forecast layout! Learn more

10-Day Weather Forecast

Advertisements
Track Severe Weather on mobile